Time;durP1;ratioP1;P1;durP2;ratioP2;P2;SDS_P1;SDS_P2;PMS_P1;PMS_P2;Temp;Humidity;BMP_temperature;BMP_pressure;BME280_temperature;BME280_humidity;BME280_pressure;Samples;Min_cycle;Max_cycle;Signal;HPM_P1;HPM_P2
2024/01/03 00:00:06;;;;;;;11.45;3.65;;;;;;;13.09;61.03;99500.25;4220608;28;20052;-52
2024/01/03 00:02:14;;;;;;;10.40;3.05;;;;;;;13.08;60.64;99498.53;4213186;28;20061;-50
2024/01/03 00:04:25;;;;;;;11.70;3.70;;;;;;;13.07;60.84;99484.50;4212247;28;20056;-52
2024/01/03 00:06:33;;;;;;;12.70;3.78;;;;;;;13.08;60.65;99482.72;4214496;28;20126;-53
2024/01/03 00:08:40;;;;;;;10.02;3.45;;;;;;;13.04;60.76;99478.59;4216858;28;20059;-52
2024/01/03 00:10:49;;;;;;;10.65;3.17;;;;;;;13.05;61.15;99481.13;4216789;28;20048;-50
2024/01/03 00:12:50;;;;;;;10.38;3.25;;;;;;;13.04;60.64;99471.50;4216820;28;20134;-53
2024/01/03 00:14:52;;;;;;;10.02;3.17;;;;;;;13.03;60.90;99469.81;4216831;28;20048;-50
2024/01/03 00:16:59;;;;;;;11.07;3.20;;;;;;;13.02;60.82;99467.28;4216580;28;20080;-53
2024/01/03 00:19:03;;;;;;;10.57;3.10;;;;;;;13.02;60.99;99473.38;4215597;28;20059;-50
2024/01/03 00:21:14;;;;;;;10.40;3.22;;;;;;;13.01;60.85;99476.97;4216601;28;20499;-51
2024/01/03 00:23:22;;;;;;;10.18;3.40;;;;;;;12.96;61.00;99471.16;4216342;28;20511;-52
2024/01/03 00:25:29;;;;;;;9.68;2.78;;;;;;;13.02;61.03;99477.84;4216509;28;20043;-51
2024/01/03 00:27:36;;;;;;;8.90;3.13;;;;;;;13.01;60.90;99476.13;4216285;28;20126;-51
2024/01/03 00:29:53;;;;;;;8.68;2.80;;;;;;;13.02;60.55;99476.03;4216377;28;20097;-50
2024/01/03 00:31:54;;;;;;;;;;;;;;;12.99;60.92;99493.84;4216940;28;20055;-51
2024/01/03 00:33:56;;;;;;;12.15;3.42;;;;;;;12.98;60.73;99495.66;4216082;28;20019;-51
2024/01/03 00:35:58;;;;;;;13.95;3.42;;;;;;;12.99;61.02;99496.50;4216369;28;20074;-54
2024/01/03 00:38:06;;;;;;;11.00;2.95;;;;;;;12.99;60.55;99492.09;4216070;28;20063;-50
2024/01/03 00:40:31;;;;;;;10.63;3.33;;;;;;;13.01;60.90;99489.34;4216431;28;20064;-52
2024/01/03 00:42:33;;;;;;;9.10;3.08;;;;;;;12.98;60.92;99498.31;4216639;28;20044;-52
2024/01/03 00:44:34;;;;;;;10.70;2.67;;;;;;;12.97;60.56;99483.41;4216382;28;20101;-50
2024/01/03 00:46:36;;;;;;;9.77;3.03;;;;;;;12.97;60.87;99482.56;4216211;28;20483;-50
2024/01/03 00:48:38;;;;;;;10.10;3.35;;;;;;;12.97;60.70;99477.28;4214546;28;20485;-50
2024/01/03 00:50:40;;;;;;;11.05;3.28;;;;;;;12.97;60.86;99487.84;4216305;28;20118;-49
2024/01/03 00:52:42;;;;;;;10.07;3.17;;;;;;;12.96;60.94;99481.72;4216178;28;20067;-47
2024/01/03 00:54:45;;;;;;;8.52;3.08;;;;;;;12.93;60.70;99463.47;4216229;28;20109;-48
2024/01/03 00:56:47;;;;;;;11.50;3.05;;;;;;;12.93;60.50;99466.94;4216033;28;20040;-48
2024/01/03 00:58:49;;;;;;;9.80;3.15;;;;;;;12.94;60.42;99466.00;4216013;28;20517;-48
2024/01/03 01:00:56;;;;;;;9.55;2.72;;;;;;;12.93;60.81;99469.56;4216250;28;20052;-51
2024/01/03 01:02:58;;;;;;;8.93;2.58;;;;;;;12.93;60.89;99472.22;4215504;28;20044;-51
2024/01/03 01:05:00;;;;;;;12.10;3.10;;;;;;;12.92;60.60;99470.50;4216117;28;20044;-49
2024/01/03 01:07:02;;;;;;;10.15;2.95;;;;;;;12.92;60.70;99470.50;4215931;28;20040;-49
2024/01/03 01:09:04;;;;;;;11.40;2.83;;;;;;;12.91;60.54;99462.69;4215876;28;20127;-51
2024/01/03 01:11:06;;;;;;;8.95;2.92;;;;;;;12.90;60.71;99469.78;4215986;28;20097;-51
2024/01/03 01:13:08;;;;;;;11.90;3.10;;;;;;;12.89;60.78;99451.41;4215558;28;20048;-52
2024/01/03 01:15:10;;;;;;;8.63;2.70;;;;;;;12.89;60.75;99460.16;4215666;28;20127;-52
2024/01/03 01:17:12;;;;;;;10.13;2.92;;;;;;;12.90;60.44;99453.09;4215035;28;20526;-50
2024/01/03 01:19:14;;;;;;;11.35;2.88;;;;;;;12.90;60.82;99458.38;4215786;28;20497;-51
2024/01/03 01:21:15;;;;;;;11.93;2.90;;;;;;;12.88;60.85;99461.13;4215599;28;20479;-51
2024/01/03 01:23:17;;;;;;;9.65;3.00;;;;;;;12.84;60.71;99450.84;4215907;28;20111;-50
2024/01/03 01:25:19;;;;;;;12.48;3.30;;;;;;;12.88;60.75;99450.56;4215544;28;20055;-51
2024/01/03 01:27:21;;;;;;;11.05;2.92;;;;;;;12.87;60.69;99448.84;4215583;28;20469;-52
2024/01/03 01:29:23;;;;;;;11.18;2.92;;;;;;;12.82;60.30;99443.03;4215457;28;20055;-51
2024/01/03 01:31:24;;;;;;;10.82;2.83;;;;;;;12.88;60.62;99452.34;4215573;28;20044;-51
2024/01/03 01:33:26;;;;;;;10.27;2.92;;;;;;;12.88;60.70;99454.97;4215042;28;20510;-53
2024/01/03 01:35:28;;;;;;;11.50;2.95;;;;;;;12.86;60.77;99449.81;4215281;28;20044;-51
2024/01/03 01:37:29;;;;;;;12.75;2.95;;;;;;;12.86;60.79;99452.44;4215518;28;20094;-50
2024/01/03 01:39:31;;;;;;;10.55;2.92;;;;;;;12.87;60.93;99455.94;4215384;28;20130;-52
2024/01/03 01:41:32;;;;;;;10.52;2.83;;;;;;;12.85;60.81;99463.09;4215441;28;20070;-51
2024/01/03 01:43:34;;;;;;;9.73;2.97;;;;;;;12.84;60.41;99456.97;4215342;28;20047;-51
2024/01/03 01:45:36;;;;;;;10.05;2.90;;;;;;;12.85;60.65;99465.75;4215328;28;20148;-52
2024/01/03 01:47:39;;;;;;;9.95;2.50;;;;;;;12.84;60.64;99466.69;4214881;28;20075;-54
2024/01/03 01:49:42;;;;;;;10.13;2.80;;;;;;;12.86;60.87;99464.81;4215065;28;20040;-52
2024/01/03 01:51:45;;;;;;;8.00;2.42;;;;;;;12.84;60.53;99456.13;4215150;28;20070;-52
2024/01/03 01:53:47;;;;;;;9.57;2.30;;;;;;;12.84;60.52;99467.53;4214991;28;20123;-53
2024/01/03 01:55:49;;;;;;;9.80;2.80;;;;;;;12.83;60.33;99459.72;4215140;28;20040;-52
2024/01/03 01:57:52;;;;;;;11.07;2.92;;;;;;;12.83;60.67;99463.22;4215116;28;20066;-50
2024/01/03 01:59:54;;;;;;;9.32;2.55;;;;;;;12.84;60.42;99470.16;4214791;28;20044;-52
2024/01/03 02:01:57;;;;;;;;;;;;;;;12.83;60.68;99467.63;4214968;28;20060;-52
2024/01/03 02:03:58;;;;;;;10.15;2.75;;;;;;;12.80;60.69;99462.56;4214906;28;19924;-52
2024/01/03 02:06:01;;;;;;;11.32;2.55;;;;;;;12.83;60.48;99465.00;4214987;28;20097;-50
2024/01/03 02:08:07;;;;;;;9.60;3.20;;;;;;;12.83;60.20;99455.31;4214908;28;20506;-52
2024/01/03 02:10:09;;;;;;;9.27;2.78;;;;;;;12.80;60.52;99457.28;4214870;28;20052;-51
2024/01/03 02:12:11;;;;;;;10.68;2.65;;;;;;;12.81;60.76;99458.97;4214820;28;20048;-51
2024/01/03 02:14:13;;;;;;;10.00;2.38;;;;;;;12.78;60.56;99447.69;4222221;28;20044;-52
2024/01/03 02:16:14;;;;;;;10.10;2.90;;;;;;;12.82;60.31;99450.97;4229892;28;20054;-51
2024/01/03 02:18:18;;;;;;;11.90;3.22;;;;;;;12.83;60.68;99451.78;4231440;28;20070;-51
2024/01/03 02:20:22;;;;;;;11.40;3.10;;;;;;;12.82;60.61;99452.75;4231774;28;20109;-50
2024/01/03 02:22:24;;;;;;;10.10;2.47;;;;;;;12.82;60.24;99447.47;4231539;28;20513;-51
2024/01/03 02:24:25;;;;;;;12.40;2.67;;;;;;;12.82;60.82;99458.00;4231539;28;20123;-52
2024/01/03 02:26:27;;;;;;;9.93;2.92;;;;;;;12.81;60.78;99451.91;4231345;28;20079;-55
2024/01/03 02:28:31;;;;;;;10.70;2.53;;;;;;;12.81;60.30;99449.28;4230777;28;20081;-51
2024/01/03 02:30:32;;;;;;;11.60;2.80;;;;;;;12.81;60.26;99454.53;4231079;28;20502;-53
2024/01/03 02:32:35;;;;;;;10.80;2.58;;;;;;;12.81;60.37;99446.63;4231492;28;20506;-55
2024/01/03 02:34:36;;;;;;;;;;;;;;;12.80;60.70;99452.84;4231948;28;20043;-53
2024/01/03 02:36:38;;;;;;;10.18;2.67;;;;;;;12.78;60.63;99457.38;4231516;28;19949;-50
2024/01/03 02:38:44;;;;;;;11.45;2.80;;;;;;;12.79;60.43;99448.50;4231318;28;20047;-52
2024/01/03 02:40:46;;;;;;;12.00;3.40;;;;;;;12.79;60.55;99456.44;4231371;28;20422;-50
2024/01/03 02:42:47;;;;;;;10.13;2.58;;;;;;;12.80;60.31;99452.00;4231438;28;20395;-52
2024/01/03 02:44:49;;;;;;;8.88;2.42;;;;;;;12.80;60.60;99452.00;4230722;27;20119;-53
2024/01/03 02:46:51;;;;;;;11.60;2.90;;;;;;;12.78;60.26;99445.03;4231278;28;20055;-52
2024/01/03 02:48:52;;;;;;;11.43;3.10;;;;;;;12.78;60.56;99452.97;4230879;28;20040;-54
2024/01/03 02:50:54;;;;;;;10.32;2.83;;;;;;;12.77;60.33;99445.97;4230886;28;20043;-50
2024/01/03 02:52:56;;;;;;;11.55;2.92;;;;;;;12.79;60.36;99459.06;4231181;28;20048;-51
2024/01/03 02:54:57;;;;;;;11.60;2.90;;;;;;;12.78;60.73;99452.09;4231184;28;20039;-52
2024/01/03 02:56:59;;;;;;;9.77;2.60;;;;;;;12.78;60.35;99442.41;4231206;28;20050;-49
2024/01/03 02:59:01;;;;;;;10.43;2.90;;;;;;;12.76;60.48;99436.38;4229506;28;20116;-54
2024/01/03 03:01:04;;;;;;;10.35;2.40;;;;;;;12.77;60.52;99443.34;4214157;28;20040;-54
2024/01/03 03:03:06;;;;;;;10.13;2.97;;;;;;;12.78;60.83;99436.25;4214123;28;20400;-52
2024/01/03 03:05:07;;;;;;;10.30;3.25;;;;;;;12.74;60.52;99434.78;4214132;28;20055;-54
2024/01/03 03:07:09;;;;;;;11.32;2.72;;;;;;;12.75;60.42;99433.84;4214159;28;20055;-49
2024/01/03 03:09:12;;;;;;;11.02;2.85;;;;;;;12.76;60.80;99431.09;4214025;28;20052;-50
2024/01/03 03:11:18;;;;;;;12.20;3.35;;;;;;;12.78;60.78;99430.97;4213785;28;20407;-53
2024/01/03 03:13:20;;;;;;;11.15;2.78;;;;;;;12.78;60.83;99428.34;4213330;28;20046;-52
2024/01/03 03:15:21;;;;;;;10.95;2.80;;;;;;;12.76;60.29;99425.81;4213763;28;20052;-53
2024/01/03 03:17:23;;;;;;;9.88;2.53;;;;;;;12.76;60.57;99424.97;4212458;28;20099;-55
2024/01/03 03:19:25;;;;;;;10.27;3.10;;;;;;;12.75;60.31;99421.47;4213806;28;20040;-53
2024/01/03 03:21:26;;;;;;;9.07;2.47;;;;;;;12.76;60.27;99414.44;4213889;28;20460;-52
2024/01/03 03:23:28;;;;;;;12.30;3.00;;;;;;;12.75;60.89;99416.22;4213890;28;20131;-53
2024/01/03 03:25:30;;;;;;;10.73;3.03;;;;;;;12.75;60.54;99425.94;4212556;28;20040;-54
2024/01/03 03:27:31;;;;;;;11.00;2.88;;;;;;;12.75;60.61;99426.75;4213850;28;20483;-50
2024/01/03 03:29:33;;;;;;;8.88;2.40;;;;;;;12.75;60.67;99410.09;4213107;28;20131;-52
2024/01/03 03:31:35;;;;;;;11.38;3.00;;;;;;;12.74;60.82;99424.22;4213881;28;20457;-53
2024/01/03 03:33:38;;;;;;;10.70;3.15;;;;;;;12.74;60.43;99400.47;4213741;28;20135;-53
2024/01/03 03:35:40;;;;;;;9.23;2.58;;;;;;;12.74;60.75;99416.31;4213590;28;20074;-50
2024/01/03 03:37:41;;;;;;;12.98;3.28;;;;;;;12.72;60.53;99413.78;4213720;28;20044;-53
2024/01/03 03:39:43;;;;;;;13.75;3.20;;;;;;;12.74;60.66;99411.03;4213436;28;20130;-53
2024/01/03 03:41:44;;;;;;;11.00;2.83;;;;;;;12.73;60.58;99415.44;4212745;28;20047;-53
2024/01/03 03:43:46;;;;;;;10.98;2.95;;;;;;;12.73;60.76;99407.53;4213290;28;20047;-52
2024/01/03 03:45:48;;;;;;;11.07;2.92;;;;;;;12.73;60.55;99410.19;4213517;28;20062;-53
2024/01/03 03:47:49;;;;;;;10.18;2.97;;;;;;;12.73;60.76;99386.44;4213205;28;20219;-50
2024/01/03 03:49:51;;;;;;;11.38;3.00;;;;;;;12.73;60.54;99409.34;4213569;28;20522;-53
2024/01/03 03:51:53;;;;;;;12.13;3.35;;;;;;;12.73;60.65;99411.97;4213320;28;20044;-53
2024/01/03 03:53:54;;;;;;;10.13;2.92;;;;;;;12.71;60.56;99413.88;4213606;28;20067;-55
2024/01/03 03:55:56;;;;;;;9.70;2.70;;;;;;;12.73;60.51;99410.19;4212222;28;20052;-52
2024/01/03 03:57:57;;;;;;;9.75;2.83;;;;;;;12.74;60.50;99416.31;4213050;28;20044;-52
2024/01/03 04:00:00;;;;;;;12.48;2.80;;;;;;;12.74;60.50;99416.31;4213474;28;20055;-49
2024/01/03 04:02:01;;;;;;;10.85;3.08;;;;;;;12.64;60.69;99408.16;4213521;28;20483;-54
2024/01/03 04:04:04;;;;;;;10.15;2.80;;;;;;;12.73;60.52;99423.38;4212200;28;20067;-53
2024/01/03 04:06:05;;;;;;;9.27;2.70;;;;;;;12.72;60.74;99413.78;4213505;28;20130;-51
2024/01/03 04:08:07;;;;;;;11.18;3.30;;;;;;;12.73;60.74;99415.44;4213366;28;20127;-53
2024/01/03 04:10:10;;;;;;;8.73;2.50;;;;;;;12.72;60.57;99405.00;4213171;28;20051;-52
2024/01/03 04:12:11;;;;;;;9.73;2.50;;;;;;;12.73;60.88;99409.34;4212806;28;20044;-53
2024/01/03 04:14:13;;;;;;;9.95;2.60;;;;;;;12.71;60.90;99409.44;4220739;28;20071;-53
2024/01/03 04:16:15;;;;;;;11.52;2.67;;;;;;;12.73;60.70;99430.44;4229969;28;20058;-51
2024/01/03 04:18:16;;;;;;;8.48;2.28;;;;;;;12.72;60.86;99426.13;4229974;28;20563;-52
2024/01/03 04:20:19;;;;;;;10.90;2.53;;;;;;;12.73;60.84;99433.09;4230031;28;20071;-52
2024/01/03 04:22:24;;;;;;;9.07;2.10;;;;;;;12.70;60.70;99418.31;4230107;28;20050;-50
2024/01/03 04:24:26;;;;;;;;;;;;;;;12.70;60.31;99415.66;4230654;28;20051;-53
2024/01/03 04:26:28;;;;;;;7.90;2.65;;;;;;;12.70;60.85;99417.47;4229610;28;19919;-52
2024/01/03 04:28:30;;;;;;;7.93;1.95;;;;;;;12.69;60.78;99423.69;4229957;28;20058;-53
2024/01/03 04:30:32;;;;;;;8.00;2.58;;;;;;;12.70;60.72;99418.31;4229944;28;20071;-51
2024/01/03 04:32:33;;;;;;;9.32;2.30;;;;;;;12.71;60.77;99421.78;4230244;28;20047;-51
2024/01/03 04:34:36;;;;;;;9.02;2.20;;;;;;;12.67;60.78;99421.13;4229917;28;20059;-53
2024/01/03 04:36:38;;;;;;;7.93;2.20;;;;;;;12.70;60.42;99420.13;4230063;28;20051;-53
2024/01/03 04:38:39;;;;;;;11.25;2.47;;;;;;;12.69;60.73;99434.25;4229839;28;20115;-52
2024/01/03 04:40:41;;;;;;;7.40;2.10;;;;;;;12.69;60.69;99434.25;4229507;28;20063;-52
2024/01/03 04:42:43;;;;;;;8.63;2.50;;;;;;;12.69;60.80;99431.59;4229880;28;20498;-53
2024/01/03 04:44:44;;;;;;;7.90;1.85;;;;;;;12.68;60.41;99438.66;4229818;28;20082;-53
2024/01/03 04:46:46;;;;;;;7.38;2.03;;;;;;;12.69;60.41;99440.34;4229793;28;20054;-54
2024/01/03 04:48:48;;;;;;;8.15;2.00;;;;;;;12.69;60.69;99439.53;4229616;28;20067;-53
2024/01/03 04:50:50;;;;;;;6.95;1.83;;;;;;;12.69;60.35;99452.72;4229781;28;20051;-50
2024/01/03 04:52:51;;;;;;;7.88;2.10;;;;;;;12.65;60.52;99451.19;4230542;28;20055;-48
2024/01/03 04:54:53;;;;;;;6.97;1.77;;;;;;;12.68;61.02;99465.03;4232559;27;20048;-48
2024/01/03 04:56:55;;;;;;;6.43;1.88;;;;;;;12.68;60.52;99461.56;4232899;28;20048;-52
2024/01/03 04:58:57;;;;;;;;;;;;;;;12.67;60.64;99454.59;4232707;28;20044;-51
2024/01/03 05:00:58;;;;;;;6.57;1.65;;;;;;;12.62;60.65;99466.28;4216011;28;19920;-53
2024/01/03 05:03:00;;;;;;;6.38;1.55;;;;;;;12.66;60.87;99469.59;4215874;28;20040;-53
2024/01/03 05:05:02;;;;;;;7.60;1.88;;;;;;;12.67;60.77;99459.88;4215918;28;20048;-50
2024/01/03 05:07:04;;;;;;;6.13;1.80;;;;;;;12.67;60.50;99463.34;4215935;28;20040;-53
2024/01/03 05:09:06;;;;;;;6.35;1.63;;;;;;;12.66;60.55;99466.94;4216012;28;20044;-50
2024/01/03 05:11:09;;;;;;;8.68;1.90;;;;;;;12.67;60.80;99457.22;4215569;28;20047;-52
2024/01/03 05:13:15;;;;;;;8.18;2.10;;;;;;;12.67;60.67;99467.78;4215878;28;20313;-50
2024/01/03 05:15:16;;;;;;;8.15;2.17;;;;;;;12.67;60.65;99468.63;4215662;28;20051;-52
2024/01/03 05:17:18;;;;;;;8.20;1.90;;;;;;;12.68;60.36;99469.47;4215732;28;20052;-51
2024/01/03 05:19:20;;;;;;;7.38;1.80;;;;;;;12.67;61.25;99475.69;4215763;28;20135;-51
2024/01/03 05:21:22;;;;;;;9.10;1.90;;;;;;;12.67;60.58;99478.34;4215616;28;20047;-51
2024/01/03 05:23:24;;;;;;;7.28;1.70;;;;;;;12.67;60.68;99467.78;4215545;28;20048;-51
2024/01/03 05:25:25;;;;;;;7.38;2.00;;;;;;;12.67;60.79;99473.88;4215316;28;20048;-53
2024/01/03 05:27:27;;;;;;;9.02;2.03;;;;;;;12.67;60.60;99484.44;4215391;28;20123;-52
2024/01/03 05:29:29;;;;;;;6.25;1.80;;;;;;;12.66;60.24;99466.94;4215453;28;20072;-51
2024/01/03 05:31:30;;;;;;;8.88;1.90;;;;;;;12.66;60.68;99471.34;4215240;28;20054;-51
2024/01/03 05:33:32;;;;;;;7.05;1.75;;;;;;;12.66;60.59;99480.13;4215519;28;20140;-50
2024/01/03 05:35:34;;;;;;;8.45;2.33;;;;;;;12.67;60.65;99476.53;4215487;28;20044;-52
2024/01/03 05:37:35;;;;;;;7.07;1.98;;;;;;;12.66;60.30;99474.00;4215661;28;20127;-50
2024/01/03 05:39:37;;;;;;;7.22;1.77;;;;;;;12.65;60.67;99483.72;4215061;28;20109;-51
2024/01/03 05:41:39;;;;;;;6.32;1.70;;;;;;;12.65;60.60;99491.63;4215395;28;20519;-52
2024/01/03 05:43:40;;;;;;;;;;;;;;;12.63;60.83;99480.31;4215716;28;20047;-50
2024/01/03 05:45:42;;;;;;;7.47;1.80;;;;;;;12.62;60.70;99490.03;4215226;28;19959;-53
2024/01/03 05:47:44;;;;;;;8.32;1.88;;;;;;;12.63;60.40;99489.06;4215209;28;20079;-55
2024/01/03 05:49:45;;;;;;;5.97;2.17;;;;;;;12.63;60.38;99502.25;4215352;28;20133;-56
2024/01/03 05:51:47;;;;;;;6.60;1.60;;;;;;;12.65;60.50;99501.31;4215112;28;20051;-51
2024/01/03 05:53:49;;;;;;;6.43;1.70;;;;;;;12.63;60.61;99502.25;4214845;28;20070;-52
2024/01/03 05:55:51;;;;;;;6.13;1.80;;;;;;;12.63;60.37;99504.88;4214865;28;20066;-49
2024/01/03 05:57:52;;;;;;;6.35;1.52;;;;;;;12.63;60.59;99507.53;4215125;28;20048;-50
2024/01/03 05:59:54;;;;;;;5.72;1.63;;;;;;;12.62;60.67;99503.22;4214615;28;20102;-52
2024/01/03 06:01:56;;;;;;;6.60;1.65;;;;;;;12.63;60.47;99511.97;4213945;28;20044;-49
2024/01/03 06:03:57;;;;;;;5.75;1.60;;;;;;;12.63;60.27;99515.44;4214084;28;20058;-52
2024/01/03 06:05:59;;;;;;;10.55;1.90;;;;;;;12.59;60.16;99513.94;4215043;28;20047;-52
2024/01/03 06:08:01;;;;;;;;;;;;;;;12.61;60.62;99519.13;4213997;28;20123;-52
2024/01/03 06:10:03;;;;;;;6.25;1.42;;;;;;;12.60;60.67;99520.94;4213795;28;19931;-52
2024/01/03 06:12:05;;;;;;;;;;;;;;;12.59;60.56;99535.06;4215291;28;20513;-52
2024/01/03 06:14:07;;;;;;;6.60;1.20;;;;;;;12.60;60.26;99530.63;4214856;28;20409;-52
2024/01/03 06:16:10;;;;;;;5.60;1.80;;;;;;;12.61;60.33;99535.81;4214753;28;20499;-52
2024/01/03 06:18:12;;;;;;;6.05;1.60;;;;;;;12.62;60.28;99529.59;4214667;28;20044;-50
2024/01/03 06:20:14;;;;;;;;;;;;;;;12.61;60.48;99519.13;4215285;28;20126;-52
2024/01/03 06:22:16;;;;;;;6.68;1.60;;;;;;;12.58;60.51;99522.81;4214304;28;20432;-52
2024/01/03 06:24:17;;;;;;;6.38;1.60;;;;;;;12.59;60.39;99526.31;4214521;28;20090;-51
2024/01/03 06:26:19;;;;;;;8.05;1.85;;;;;;;12.59;60.48;99527.13;4214757;28;20131;-52
2024/01/03 06:28:21;;;;;;;6.40;1.67;;;;;;;12.61;60.35;99513.84;4214632;28;20157;-49
2024/01/03 06:30:23;;;;;;;6.65;1.33;;;;;;;12.60;60.22;99522.69;4214755;28;20438;-52
2024/01/03 06:32:24;;;;;;;6.70;1.40;;;;;;;12.60;60.41;99528.84;4214510;28;20048;-52
2024/01/03 06:34:26;;;;;;;5.63;1.30;;;;;;;12.60;60.68;99538.53;4214524;28;20055;-51
2024/01/03 06:36:28;;;;;;;6.32;1.65;;;;;;;12.60;60.27;99534.13;4214106;28;20048;-53
2024/01/03 06:38:30;;;;;;;6.15;1.35;;;;;;;12.60;60.37;99527.97;4214412;28;20044;-51
2024/01/03 06:40:32;;;;;;;6.47;1.50;;;;;;;12.59;60.34;99524.50;4213084;28;20047;-53
2024/01/03 06:42:33;;;;;;;7.53;1.40;;;;;;;12.60;60.58;99530.63;4214456;28;20079;-50
2024/01/03 06:44:35;;;;;;;5.88;1.55;;;;;;;12.60;60.29;99538.53;4214517;28;20048;-50
2024/01/03 06:46:37;;;;;;;6.15;1.30;;;;;;;12.59;60.36;99537.69;4214422;28;20051;-52
2024/01/03 06:48:38;;;;;;;6.55;1.40;;;;;;;12.59;60.39;99536.84;4214390;28;20051;-48
2024/01/03 06:50:40;;;;;;;6.35;1.60;;;;;;;12.59;60.34;99539.50;4213773;28;20047;-53
2024/01/03 06:52:42;;;;;;;7.28;1.95;;;;;;;12.60;60.50;99541.16;4214165;28;20056;-52
2024/01/03 06:54:44;;;;;;;6.22;1.75;;;;;;;12.58;60.31;99546.53;4214198;28;20082;-52
2024/01/03 06:56:45;;;;;;;6.85;1.88;;;;;;;12.59;60.85;99545.59;4214136;28;20548;-52
2024/01/03 06:58:49;;;;;;;7.85;1.58;;;;;;;12.58;60.31;99546.53;4213938;28;20051;-52
2024/01/03 07:00:51;;;;;;;7.43;1.70;;;;;;;12.59;60.71;99544.78;4214053;28;20410;-52
2024/01/03 07:02:53;;;;;;;;;;;;;;;12.58;60.74;99562.38;4214379;28;20044;-49
2024/01/03 07:04:54;;;;;;;7.47;1.70;;;;;;;12.57;60.71;99546.66;4214071;28;19991;-50
2024/01/03 07:06:57;;;;;;;6.95;2.00;;;;;;;12.58;60.76;99556.25;4213807;28;20052;-48
2024/01/03 07:08:58;;;;;;;8.02;1.67;;;;;;;12.58;60.53;99551.81;4213892;28;20075;-53
2024/01/03 07:11:00;;;;;;;7.03;1.65;;;;;;;12.58;60.44;99550.97;4213981;28;20055;-51
2024/01/03 07:13:02;;;;;;;6.88;1.85;;;;;;;12.58;60.67;99546.53;4214228;28;20097;-53
2024/01/03 07:15:05;;;;;;;;;;;;;;;12.57;60.62;99547.47;4227353;28;20093;-52
2024/01/03 07:17:06;;;;;;;7.57;1.52;;;;;;;12.56;60.52;99550.22;4230621;28;19919;-51
2024/01/03 07:19:08;;;;;;;5.35;1.60;;;;;;;12.57;60.48;99549.28;4230678;28;20039;-52
2024/01/03 07:21:10;;;;;;;7.53;1.98;;;;;;;12.57;60.80;99544.00;4229130;28;20047;-50
2024/01/03 07:23:12;;;;;;;8.38;1.98;;;;;;;12.57;60.63;99544.00;4230798;28;20047;-52
2024/01/03 07:25:13;;;;;;;7.65;1.92;;;;;;;12.56;60.77;99550.22;4230755;28;20212;-51
2024/01/03 07:27:15;;;;;;;8.68;2.35;;;;;;;12.57;60.80;99550.13;4230397;28;20058;-51
2024/01/03 07:29:17;;;;;;;7.60;1.80;;;;;;;12.57;60.52;99549.28;4230619;28;20075;-52
2024/01/03 07:31:19;;;;;;;8.35;1.90;;;;;;;12.58;60.61;99557.09;4230216;28;20061;-52
2024/01/03 07:33:21;;;;;;;8.82;2.03;;;;;;;12.58;60.58;99556.25;4230370;28;20051;-50
2024/01/03 07:35:24;;;;;;;6.82;1.75;;;;;;;12.57;60.53;99550.13;4230379;28;20514;-51
2024/01/03 07:37:25;;;;;;;7.18;1.80;;;;;;;12.58;60.92;99553.63;4230446;28;20067;-51
2024/01/03 07:39:27;;;;;;;7.75;2.20;;;;;;;12.59;60.56;99547.41;4230480;28;20047;-48
2024/01/03 07:41:30;;;;;;;10.52;1.88;;;;;;;12.58;60.76;99545.72;4230568;28;20044;-51
2024/01/03 07:43:32;;;;;;;10.40;2.15;;;;;;;12.58;60.90;99565.00;4230580;28;20048;-50
2024/01/03 07:45:35;;;;;;;8.77;2.00;;;;;;;12.59;60.43;99555.31;4230179;28;20071;-52
2024/01/03 07:47:36;;;;;;;7.95;2.03;;;;;;;12.57;60.56;99547.47;4230378;28;20456;-53
2024/01/03 07:49:38;;;;;;;7.88;2.10;;;;;;;12.58;60.49;99559.72;4230121;28;20043;-52
2024/01/03 07:51:40;;;;;;;;;;;;;;;12.56;61.06;99553.69;4230487;28;20106;-52
2024/01/03 07:53:42;;;;;;;9.15;2.20;;;;;;;12.55;60.52;99552.03;4229124;28;19927;-49
2024/01/03 07:55:44;;;;;;;7.75;2.13;;;;;;;12.57;60.69;99559.84;4230470;28;20062;-52
2024/01/03 07:57:45;;;;;;;9.80;2.10;;;;;;;12.56;60.69;99558.97;4230399;28;20510;-51
2024/01/03 07:59:47;;;;;;;7.63;1.90;;;;;;;12.56;60.89;99563.41;4222592;28;20044;-50
2024/01/03 08:01:48;;;;;;;8.38;2.05;;;;;;;12.57;60.43;99568.59;4213466;28;20105;-48
2024/01/03 08:03:50;;;;;;;10.70;2.47;;;;;;;12.57;60.62;99560.66;4213215;28;20048;-48
2024/01/03 08:05:53;;;;;;;8.65;2.38;;;;;;;12.57;60.44;99560.66;4213427;28;20082;-48
2024/01/03 08:07:55;;;;;;;10.40;2.63;;;;;;;12.56;61.00;99572.16;4213472;28;20052;-51
2024/01/03 08:09:56;;;;;;;7.85;2.47;;;;;;;12.57;60.45;99555.41;4213429;28;20469;-49
2024/01/03 08:11:58;;;;;;;9.85;2.15;;;;;;;12.57;60.88;99559.84;4213285;28;20044;-48
2024/01/03 08:14:00;;;;;;;9.00;2.15;;;;;;;12.58;60.92;99569.44;4218636;28;20477;-50
2024/01/03 08:16:02;;;;;;;8.13;2.38;;;;;;;12.58;60.75;99574.72;4230111;28;20044;-50
2024/01/03 08:18:04;;;;;;;9.77;2.65;;;;;;;12.58;60.39;99562.38;4229501;28;20048;-50
2024/01/03 08:20:08;;;;;;;8.48;2.30;;;;;;;12.58;61.04;99562.38;4230274;28;20418;-47
2024/01/03 08:22:10;;;;;;;10.23;2.85;;;;;;;12.58;60.69;99574.72;4230437;28;20044;-51
2024/01/03 08:24:12;;;;;;;10.07;2.95;;;;;;;12.57;60.60;99570.38;4230155;28;20052;-51
2024/01/03 08:26:13;;;;;;;10.32;2.83;;;;;;;12.57;60.97;99576.50;4229935;28;20071;-47
2024/01/03 08:28:15;;;;;;;8.82;2.65;;;;;;;12.58;60.54;99572.91;4232378;28;20044;-50
2024/01/03 08:30:17;;;;;;;11.48;2.40;;;;;;;12.52;61.25;99588.28;4233375;28;20048;-48
2024/01/03 08:32:18;;;;;;;10.43;2.55;;;;;;;12.53;60.87;99595.28;4232994;28;20047;-49
2024/01/03 08:34:20;;;;;;;9.38;2.33;;;;;;;12.56;60.91;99587.97;4233132;28;20065;-49
2024/01/03 08:36:22;;;;;;;10.30;2.65;;;;;;;12.58;60.54;99594.03;4233204;28;20136;-48
2024/01/03 08:38:24;;;;;;;10.30;2.85;;;;;;;12.59;60.45;99597.53;4232418;28;20071;-47
2024/01/03 08:40:25;;;;;;;10.50;2.70;;;;;;;12.59;60.82;99590.44;4233057;28;20044;-49
2024/01/03 08:42:27;;;;;;;10.80;2.95;;;;;;;12.60;60.81;99591.28;4232864;28;20075;-47
2024/01/03 08:44:29;;;;;;;11.30;3.08;;;;;;;12.60;60.59;99586.00;4233053;28;20069;-45
2024/01/03 08:46:34;;;;;;;11.82;2.85;;;;;;;12.59;60.81;99585.16;4233251;28;20079;-50
2024/01/03 08:48:45;;;;;;;9.98;2.72;;;;;;;12.61;61.00;99588.56;4232695;27;20055;-47
2024/01/03 08:50:47;;;;;;;10.88;2.95;;;;;;;12.59;61.11;99589.59;4233012;28;20498;-47
2024/01/03 08:52:49;;;;;;;10.07;2.45;;;;;;;12.60;61.23;99581.59;4233020;28;20047;-47
2024/01/03 08:54:50;;;;;;;13.50;3.03;;;;;;;12.59;61.04;99587.81;4232979;28;20044;-50
2024/01/03 08:56:52;;;;;;;8.45;2.70;;;;;;;12.60;61.06;99594.78;4233077;28;20127;-47
2024/01/03 08:58:54;;;;;;;11.25;2.92;;;;;;;12.61;60.85;99579.78;4232804;28;20421;-48
2024/01/03 09:00:55;;;;;;;9.45;2.70;;;;;;;12.61;61.02;99587.69;4232833;28;20063;-50
2024/01/03 09:03:00;;;;;;;8.23;2.47;;;;;;;12.60;60.85;99586.88;4232631;28;20104;-51
2024/01/03 09:05:02;;;;;;;10.15;2.60;;;;;;;12.60;60.96;99581.59;4232766;28;20047;-50
2024/01/03 09:07:03;;;;;;;8.75;2.72;;;;;;;12.62;60.94;99585.00;4232911;28;20494;-50
2024/01/03 09:09:05;;;;;;;9.15;2.47;;;;;;;12.61;61.17;99578.00;4232860;28;20055;-50
2024/01/03 09:11:11;;;;;;;9.95;2.60;;;;;;;12.62;60.85;99582.34;4232655;28;20123;-52
2024/01/03 09:13:12;;;;;;;10.80;2.72;;;;;;;12.62;60.70;99585.00;4232513;28;20071;-53
2024/01/03 09:15:14;;;;;;;9.77;2.92;;;;;;;12.60;60.60;99575.44;4231670;28;20059;-50
2024/01/03 09:17:16;;;;;;;10.05;2.95;;;;;;;12.61;60.75;99578.00;4231957;28;20516;-51
2024/01/03 09:19:18;;;;;;;8.02;2.30;;;;;;;12.62;60.99;99584.13;4232562;28;20108;-53
2024/01/03 09:21:21;;;;;;;10.10;2.40;;;;;;;12.65;61.08;99589.22;4232407;28;20457;-53
2024/01/03 09:23:23;;;;;;;9.73;2.20;;;;;;;12.65;60.73;99578.66;4232530;28;20530;-51
2024/01/03 09:25:24;;;;;;;9.90;2.60;;;;;;;12.66;60.69;99579.50;4232603;28;20054;-53
2024/01/03 09:27:26;;;;;;;11.68;3.00;;;;;;;12.66;60.69;99593.56;4232356;28;20043;-50
2024/01/03 09:29:28;;;;;;;9.73;2.67;;;;;;;12.66;60.79;99583.00;4232258;28;20050;-52
2024/01/03 09:31:31;;;;;;;10.30;2.67;;;;;;;12.62;60.86;99569.16;4231924;28;20052;-50
2024/01/03 09:33:33;;;;;;;10.90;3.10;;;;;;;12.68;60.86;99564.44;4232449;28;20051;-49